Time;durP1;ratioP1;P1;durP2;ratioP2;P2;SDS_P1;SDS_P2;PMS_P1;PMS_P2;Temp;Humidity;BMP_temperature;BMP_pressure;BME280_temperature;BME280_humidity;BME280_pressure;Samples;Min_cycle;Max_cycle;Signal;HPM_P1;HPM_P2
2023/10/10 00:00:28;;;;;;;5.35;2.03;;;22.50;49.10;;;;;;5109928;27;46899;-70
2023/10/10 00:02:58;;;;;;;3.20;2.05;;;22.50;49.10;;;;;;5109102;27;45325;-71
2023/10/10 00:05:33;;;;;;;4.40;2.22;;;22.50;49.10;;;;;;5109630;27;45385;-70
2023/10/10 00:08:05;;;;;;;4.35;2.75;;;22.50;49.10;;;;;;5109867;27;45429;-70
2023/10/10 00:10:32;;;;;;;4.05;1.95;;;22.50;49.10;;;;;;5109689;27;45557;-70
2023/10/10 00:13:00;;;;;;;5.75;2.53;;;22.40;49.10;;;;;;5110055;27;45384;-70
2023/10/10 00:15:33;;;;;;;3.10;1.90;;;22.40;49.10;;;;;;5109795;27;45318;-70
2023/10/10 00:18:07;;;;;;;4.80;2.13;;;22.40;49.20;;;;;;5109876;27;45582;-70
2023/10/10 00:20:41;;;;;;;4.03;2.25;;;22.30;49.80;;;;;;5109624;27;47567;-70
2023/10/10 00:23:10;;;;;;;5.15;2.60;;;22.30;49.10;;;;;;5109607;27;45501;-70
2023/10/10 00:25:38;;;;;;;3.25;2.00;;;22.30;49.10;;;;;;5109664;27;45307;-71
2023/10/10 00:28:16;;;;;;;5.22;2.72;;;22.30;49.10;;;;;;5108874;27;45640;-72
2023/10/10 00:30:43;;;;;;;2.70;1.92;;;22.30;49.20;;;;;;5109652;27;45418;-70
2023/10/10 00:33:14;;;;;;;3.05;2.10;;;22.30;49.10;;;;;;5109331;27;45438;-70
2023/10/10 00:35:42;;;;;;;2.92;1.70;;;22.20;49.10;;;;;;5109253;27;45361;-70
2023/10/10 00:38:12;;;;;;;5.28;2.10;;;22.20;49.20;;;;;;5109503;27;45365;-70
2023/10/10 00:40:39;;;;;;;4.18;2.45;;;22.20;49.10;;;;;;5109331;27;45199;-71
2023/10/10 00:43:13;;;;;;;4.05;2.38;;;22.20;49.10;;;;;;5109232;27;45310;-71
2023/10/10 00:45:40;;;;;;;8.30;2.92;;;22.20;49.20;;;;;;5109116;27;45353;-71
2023/10/10 00:48:09;;;;;;;3.97;2.20;;;22.10;49.10;;;;;;5109488;27;45636;-70
2023/10/10 00:50:39;;;;;;;3.75;2.38;;;22.10;49.10;;;;;;5108706;27;46376;-70
2023/10/10 00:53:11;;;;;;;3.45;2.40;;;22.10;49.10;;;;;;5109220;27;45310;-70
2023/10/10 00:55:39;;;;;;;6.07;2.20;;;22.10;49.20;;;;;;5108878;27;45308;-71
2023/10/10 00:58:07;;;;;;;5.70;2.20;;;22.10;49.20;;;;;;5109138;27;45484;-70
2023/10/10 01:00:35;;;;;;;4.68;1.92;;;22.00;49.20;;;;;;5108640;27;46656;-70
2023/10/10 01:03:07;;;;;;;3.42;1.85;;;22.00;49.10;;;;;;5108666;27;45370;-71
2023/10/10 01:05:42;;;;;;;3.70;2.20;;;22.00;49.10;;;;;;5108949;27;45398;-70
2023/10/10 01:08:10;;;;;;;3.05;2.17;;;22.00;49.10;;;;;;5109280;27;45418;-71
2023/10/10 01:10:43;;;;;;;6.07;2.55;;;22.00;49.20;;;;;;5108613;27;45526;-70
2023/10/10 01:13:10;;;;;;;2.75;2.08;;;22.00;49.20;;;;;;5108660;27;45336;-70
2023/10/10 01:15:37;;;;;;;5.20;2.00;;;22.00;49.10;;;;;;5108730;27;45374;-70
2023/10/10 01:18:12;;;;;;;4.38;2.25;;;21.90;49.10;;;;;;5109065;27;45298;-71
2023/10/10 01:20:45;;;;;;;3.00;2.03;;;21.90;49.20;;;;;;5108720;27;47473;-70
2023/10/10 01:23:14;;;;;;;4.40;2.20;;;21.90;49.20;;;;;;5109332;27;45330;-71
2023/10/10 01:25:45;;;;;;;3.28;2.03;;;21.90;49.20;;;;;;5109156;27;45334;-71
2023/10/10 01:28:23;;;;;;;4.63;1.98;;;21.90;49.20;;;;;;5109363;27;45374;-72
2023/10/10 01:30:59;;;;;;;3.47;2.00;;;21.80;49.20;;;;;;5108907;27;45335;-70
2023/10/10 01:33:35;;;;;;;4.50;2.13;;;21.80;49.10;;;;;;5109167;27;45311;-70
2023/10/10 01:36:11;;;;;;;3.53;2.60;;;21.80;49.20;;;;;;5109151;27;45395;-71
2023/10/10 01:38:59;;;;;;;3.25;1.65;;;21.80;49.20;;;;;;5108813;27;45370;-70
2023/10/10 01:41:38;;;;;;;4.43;2.10;;;21.80;49.20;;;;;;5108362;27;46597;-71
2023/10/10 01:44:11;;;;;;;5.25;2.35;;;21.80;49.20;;;;;;5108787;27;45342;-71
2023/10/10 01:46:40;;;;;;;5.60;2.30;;;21.70;49.20;;;;;;5108711;27;45401;-70
2023/10/10 01:49:12;;;;;;;3.97;2.38;;;21.70;49.10;;;;;;5108862;27;45518;-71
2023/10/10 01:51:42;;;;;;;3.50;2.25;;;21.70;49.20;;;;;;5108253;27;46483;-70
2023/10/10 01:54:14;;;;;;;3.72;2.20;;;21.70;49.20;;;;;;5108128;27;45411;-70
2023/10/10 01:56:42;;;;;;;3.67;2.00;;;21.60;49.10;;;;;;5108226;27;45224;-70
2023/10/10 01:59:13;;;;;;;4.68;2.00;;;21.60;49.20;;;;;;5108460;27;45381;-70
2023/10/10 02:01:41;;;;;;;4.03;2.00;;;21.60;49.20;;;;;;5108508;27;46420;-71
2023/10/10 02:04:08;;;;;;;2.35;1.70;;;21.60;49.20;;;;;;5107893;27;45393;-71
2023/10/10 02:06:37;;;;;;;2.88;1.90;;;21.60;49.20;;;;;;5105563;27;45407;-70
2023/10/10 02:09:11;;;;;;;4.18;2.10;;;21.60;49.30;;;;;;5108755;27;45342;-71
2023/10/10 02:11:49;;;;;;;2.70;1.90;;;21.50;49.20;;;;;;5107774;27;46400;-70
2023/10/10 02:14:19;;;;;;;2.97;1.90;;;21.50;49.20;;;;;;5108188;27;45322;-71
2023/10/10 02:16:48;;;;;;;4.43;2.22;;;21.50;49.20;;;;;;5108009;27;45382;-70
2023/10/10 02:19:23;;;;;;;3.13;1.77;;;21.50;49.20;;;;;;5108012;27;45261;-70
2023/10/10 02:22:03;;;;;;;3.80;1.77;;;21.50;49.20;;;;;;5107664;27;47654;-70
2023/10/10 02:24:40;;;;;;;4.15;1.85;;;21.50;49.30;;;;;;5107427;27;45317;-70
2023/10/10 02:27:06;;;;;;;3.47;2.15;;;21.50;49.20;;;;;;5107675;27;45372;-70
2023/10/10 02:29:36;;;;;;;3.47;1.83;;;21.40;49.20;;;;;;5107809;27;45338;-70
2023/10/10 02:32:12;;;;;;;4.78;2.10;;;21.50;49.30;;;;;;5107311;27;46595;-70
2023/10/10 02:34:42;;;;;;;2.45;1.70;;;21.40;49.20;;;;;;5107238;27;45452;-70
2023/10/10 02:37:27;;;;;;;5.13;2.10;;;21.40;49.30;;;;;;5107544;27;45332;-70
2023/10/10 02:40:07;;;;;;;2.88;1.70;;;21.40;49.20;;;;;;5107860;27;45310;-70
2023/10/10 02:42:34;;;;;;;3.78;2.00;;;21.40;49.30;;;;;;5106933;27;45530;-70
2023/10/10 02:45:02;;;;;;;3.90;2.42;;;21.40;49.20;;;;;;5107270;27;45370;-70
2023/10/10 02:47:32;;;;;;;2.72;1.70;;;21.30;49.20;;;;;;5107321;27;45286;-70
2023/10/10 02:50:09;;;;;;;2.17;1.70;;;21.30;49.20;;;;;;5106754;27;45477;-71
2023/10/10 02:52:38;;;;;;;2.97;2.50;;;21.30;49.20;;;;;;5107261;27;45579;-71
2023/10/10 02:55:12;;;;;;;4.97;2.10;;;21.30;49.30;;;;;;5107207;27;45327;-70
2023/10/10 02:57:41;;;;;;;2.97;2.20;;;21.30;49.30;;;;;;5107574;27;45261;-70
2023/10/10 03:00:26;;;;;;;2.20;1.90;;;21.30;49.90;;;;;;5108150;27;45310;-70
2023/10/10 03:02:54;;;;;;;2.97;1.75;;;21.30;49.30;;;;;;5107190;27;46747;-70
2023/10/10 03:05:38;;;;;;;4.45;2.00;;;21.30;49.30;;;;;;5106990;27;45393;-70
2023/10/10 03:08:12;;;;;;;3.03;1.70;;;21.20;49.20;;;;;;5107514;27;45316;-70
2023/10/10 03:10:44;;;;;;;5.40;2.20;;;21.20;49.20;;;;;;5107359;27;45374;-70
2023/10/10 03:13:14;;;;;;;3.15;1.80;;;21.20;49.30;;;;;;5107274;27;45476;-71
2023/10/10 03:15:55;;;;;;;3.33;1.70;;;21.20;49.20;;;;;;5107048;27;45330;-70
2023/10/10 03:18:29;;;;;;;3.08;1.90;;;21.20;49.30;;;;;;5107596;27;45193;-71
2023/10/10 03:21:24;;;;;;;4.25;2.15;;;21.20;49.30;;;;;;5107546;27;45346;-70
2023/10/10 03:23:54;;;;;;;4.55;1.80;;;21.20;49.20;;;;;;5106818;27;47010;-70
2023/10/10 03:26:51;;;;;;;3.72;2.03;;;21.10;49.20;;;;;;5106905;27;45362;-70
2023/10/10 03:29:21;;;;;;;4.38;1.83;;;21.10;49.20;;;;;;5106958;27;45374;-70
2023/10/10 03:31:55;;;;;;;2.47;1.45;;;21.10;49.30;;;;;;5107163;27;45311;-70
2023/10/10 03:34:31;;;;;;;2.90;2.20;;;21.10;49.20;;;;;;5106448;27;46770;-70
2023/10/10 03:37:20;;;;;;;3.53;2.10;;;21.10;49.30;;;;;;5106821;27;45639;-70
2023/10/10 03:39:53;;;;;;;4.50;1.90;;;21.10;49.20;;;;;;5106661;27;45304;-70
2023/10/10 05:24:12;;;;;;;4.75;2.25;;;20.50;49.50;;;;;;5106510;27;45787;-70
2023/10/10 05:26:46;;;;;;;4.28;1.90;;;20.50;49.50;;;;;;5108878;27;45371;-70
2023/10/10 05:29:13;;;;;;;5.45;1.80;;;20.60;49.50;;;;;;5109547;27;45343;-70
2023/10/10 05:31:44;;;;;;;3.28;1.98;;;20.60;49.50;;;;;;5109029;27;45295;-70
2023/10/10 05:34:11;;;;;;;4.43;1.92;;;20.60;49.50;;;;;;5108074;27;46801;-71
2023/10/10 05:36:41;;;;;;;3.15;1.95;;;20.50;49.50;;;;;;5108104;27;45270;-70
2023/10/10 05:39:09;;;;;;;3.33;2.22;;;20.50;49.50;;;;;;5108480;27;45397;-70
2023/10/10 05:41:40;;;;;;;4.03;1.80;;;20.50;49.50;;;;;;5108300;27;45424;-70
2023/10/10 05:44:07;;;;;;;4.45;1.88;;;20.50;49.60;;;;;;5108125;27;46839;-71
2023/10/10 05:46:35;;;;;;;4.43;1.92;;;20.50;49.60;;;;;;5107989;27;45343;-70
2023/10/10 05:49:02;;;;;;;3.30;1.88;;;20.50;49.60;;;;;;5108167;27;45372;-70
2023/10/10 05:51:30;;;;;;;6.28;1.88;;;20.50;49.50;;;;;;5108470;27;45445;-70
2023/10/10 05:53:58;;;;;;;3.88;1.77;;;20.50;49.50;;;;;;5108125;27;46462;-70
2023/10/10 05:56:25;;;;;;;3.55;1.67;;;20.50;49.50;;;;;;5107726;27;45395;-70
2023/10/10 05:58:52;;;;;;;4.78;1.85;;;20.50;49.50;;;;;;5108574;27;45230;-70
2023/10/10 06:01:19;;;;;;;4.35;2.08;;;20.50;49.50;;;;;;5108639;27;45423;-70
2023/10/10 06:03:46;;;;;;;4.95;1.70;;;20.50;49.50;;;;;;5108014;27;46562;-70
2023/10/10 06:06:15;;;;;;;2.80;1.80;;;20.40;49.40;;;;;;5108112;27;45354;-70
2023/10/10 06:08:43;;;;;;;4.00;2.67;;;20.40;49.40;;;;;;5107158;27;45348;-70
2023/10/10 06:11:13;;;;;;;4.90;1.85;;;20.40;49.40;;;;;;5108224;27;45490;-70
2023/10/10 06:13:41;;;;;;;3.42;1.90;;;20.40;49.50;;;;;;5107375;27;46682;-70
2023/10/10 06:16:12;;;;;;;2.65;1.85;;;20.50;49.80;;;;;;5107786;27;45497;-70
2023/10/10 06:18:41;;;;;;;3.58;1.80;;;20.40;49.50;;;;;;5107736;27;45357;-70
2023/10/10 06:21:09;;;;;;;2.90;1.88;;;20.50;49.50;;;;;;5108013;27;45256;-70
2023/10/10 06:23:36;;;;;;;4.72;1.77;;;20.50;49.50;;;;;;5107416;27;46387;-70
2023/10/10 06:26:03;;;;;;;4.53;1.92;;;20.40;49.50;;;;;;5106912;27;45350;-70
2023/10/10 06:28:36;;;;;;;4.22;1.80;;;20.50;49.50;;;;;;5107645;27;45642;-70
2023/10/10 06:31:05;;;;;;;4.95;2.20;;;20.40;49.50;;;;;;5108021;27;45435;-72
2023/10/10 06:33:40;;;;;;;3.67;1.73;;;20.40;49.50;;;;;;5107254;27;46673;-71
2023/10/10 06:36:32;;;;;;;5.05;1.92;;;20.40;49.50;;;;;;5107272;27;45342;-70
2023/10/10 06:41:47;;;;;;;4.20;2.08;;;20.50;49.50;;;;;;5105349;27;45407;-72
2023/10/10 06:44:17;;;;;;;2.53;1.65;;;20.50;49.50;;;;;;5106882;27;45432;-72
2023/10/10 06:46:48;;;;;;;4.28;1.90;;;20.40;49.40;;;;;;5107082;27;45343;-71
2023/10/10 06:49:15;;;;;;;3.65;2.08;;;20.50;49.50;;;;;;5107815;27;45299;-71
2023/10/10 06:51:42;;;;;;;4.35;1.85;;;20.50;49.50;;;;;;5107286;27;45336;-71
2023/10/10 06:54:09;;;;;;;4.60;1.98;;;20.50;49.50;;;;;;5107097;27;45606;-71
2023/10/10 06:56:53;;;;;;;7.75;2.40;;;20.50;49.50;;;;;;5107008;27;45126;-73
2023/10/10 06:59:26;;;;;;;5.35;2.30;;;20.50;49.50;;;;;;5107254;27;45321;-71
2023/10/10 07:01:53;;;;;;;3.10;2.20;;;20.50;49.50;;;;;;5107847;27;45426;-71
2023/10/10 07:04:20;;;;;;;6.38;2.42;;;20.50;49.50;;;;;;5107033;27;47622;-71
2023/10/10 07:06:48;;;;;;;3.22;2.05;;;20.50;49.50;;;;;;5106778;27;45257;-72
2023/10/10 07:09:27;;;;;;;5.00;2.40;;;20.50;49.50;;;;;;5107054;27;45357;-71
2023/10/10 07:11:55;;;;;;;6.50;2.55;;;20.50;49.40;;;;;;5107183;27;45439;-71
2023/10/10 07:14:25;;;;;;;4.78;2.97;;;20.50;49.50;;;;;;5106553;27;45330;-71
2023/10/10 07:16:54;;;;;;;6.05;2.15;;;20.50;49.40;;;;;;5106502;27;45382;-72
2023/10/10 07:19:25;;;;;;;5.45;2.63;;;20.60;49.40;;;;;;5107074;27;45417;-70
2023/10/10 07:21:51;;;;;;;6.05;2.35;;;20.60;49.40;;;;;;5107211;27;45416;-70
2023/10/10 07:24:18;;;;;;;4.60;2.83;;;20.60;49.40;;;;;;5106717;27;46443;-70
2023/10/10 07:26:58;;;;;;;4.07;2.30;;;20.60;49.40;;;;;;5107673;27;46203;-72
2023/10/10 07:29:57;;;;;;;4.80;2.58;;;20.60;49.40;;;;;;5099184;27;45376;-72
2023/10/10 07:32:17;;;;;;;6.18;2.78;;;20.60;49.40;;;;;;5086751;28;45511;-71
2023/10/10 07:34:49;;;;;;;6.20;2.70;;;20.60;49.40;;;;;;5085981;27;46361;-70
2023/10/10 07:37:16;;;;;;;4.00;2.45;;;20.60;49.50;;;;;;5088296;27;45366;-70
2023/10/10 07:39:56;;;;;;;4.60;2.30;;;20.60;49.50;;;;;;5090163;27;45367;-71
2023/10/10 07:42:27;;;;;;;4.40;2.78;;;20.70;49.60;;;;;;5089791;27;45394;-73
2023/10/10 07:44:55;;;;;;;3.55;2.60;;;20.70;49.60;;;;;;5089698;27;46831;-71
2023/10/10 07:47:26;;;;;;;5.20;2.70;;;20.70;49.60;;;;;;5088877;27;45382;-71
2023/10/10 07:49:53;;;;;;;4.47;2.20;;;20.70;49.60;;;;;;5089098;27;45388;-72
2023/10/10 07:52:21;;;;;;;5.45;2.85;;;20.70;49.60;;;;;;5089245;28;45447;-72
2023/10/10 07:54:51;;;;;;;4.55;2.67;;;20.70;49.60;;;;;;5088922;27;45506;-71
2023/10/10 07:57:22;;;;;;;7.10;2.75;;;20.80;49.60;;;;;;5089084;27;46268;-72
2023/10/10 07:59:49;;;;;;;7.95;3.10;;;20.80;49.60;;;;;;5088985;27;45438;-71
2023/10/10 08:02:24;;;;;;;5.82;3.13;;;20.80;49.60;;;;;;5089022;27;45652;-69
2023/10/10 08:04:52;;;;;;;5.45;2.90;;;20.80;49.60;;;;;;5088766;27;46726;-72
2023/10/10 08:07:19;;;;;;;6.97;3.30;;;20.80;49.60;;;;;;5088750;27;45325;-71
2023/10/10 08:09:47;;;;;;;6.30;3.53;;;20.90;49.70;;;;;;5088936;27;45332;-71
2023/10/10 08:12:13;;;;;;;7.57;3.58;;;20.90;49.70;;;;;;5089008;27;45563;-70
2023/10/10 08:14:41;;;;;;;10.93;3.85;;;20.90;49.70;;;;;;5088437;27;45755;-71
2023/10/10 08:17:18;;;;;;;6.60;3.28;;;20.90;49.70;;;;;;5088382;27;45261;-71
2023/10/10 08:19:50;;;;;;;6.63;3.67;;;20.90;49.70;;;;;;5089101;27;45267;-70
2023/10/10 08:22:19;;;;;;;6.45;3.47;;;20.90;49.70;;;;;;5098287;27;45522;-71
2023/10/10 08:24:46;;;;;;;5.97;3.22;;;20.90;49.60;;;;;;5108780;27;46873;-71
2023/10/10 08:27:14;;;;;;;4.63;3.10;;;20.90;49.60;;;;;;5106605;27;45501;-70
2023/10/10 08:29:41;;;;;;;5.80;3.05;;;21.00;49.50;;;;;;5107351;27;45407;-70
2023/10/10 08:32:08;;;;;;;5.78;3.50;;;21.00;49.50;;;;;;5109379;27;45340;-73
2023/10/10 08:34:38;;;;;;;5.07;3.33;;;21.00;49.40;;;;;;5108778;27;45272;-72
2023/10/10 08:37:09;;;;;;;5.72;3.00;;;21.10;49.40;;;;;;5088708;27;45564;-69
2023/10/10 08:39:36;;;;;;;5.38;3.42;;;21.10;49.30;;;;;;5091941;27;45450;-74
2023/10/10 08:42:05;;;;;;;5.25;3.13;;;21.10;49.20;;;;;;5100522;27;45348;-75
2023/10/10 08:44:36;;;;;;;4.78;2.95;;;21.10;49.20;;;;;;5106527;27;46674;-76
2023/10/10 08:47:03;;;;;;;7.57;3.08;;;21.20;49.80;;;;;;5108550;27;45500;-76
2023/10/10 08:49:30;;;;;;;3.85;2.67;;;21.20;49.30;;;;;;5108048;27;45382;-75
2023/10/10 08:52:00;;;;;;;5.38;3.00;;;21.20;49.30;;;;;;5108703;27;45529;-77
2023/10/10 08:54:29;;;;;;;6.25;3.00;;;21.30;49.30;;;;;;5095666;27;45406;-74
2023/10/10 08:57:00;;;;;;;7.07;3.00;;;21.30;49.30;;;;;;5087576;27;45410;-75
2023/10/10 08:59:28;;;;;;;5.53;2.53;;;21.30;49.40;;;;;;5087825;27;45405;-74
2023/10/10 09:01:56;;;;;;;4.65;2.72;;;21.40;49.30;;;;;;5108690;27;45362;-75
2023/10/10 09:04:30;;;;;;;6.82;3.30;;;21.40;49.80;;;;;;5108641;27;45539;-75
2023/10/10 09:07:00;;;;;;;5.80;3.15;;;21.40;49.90;;;;;;5108526;27;45479;-76
2023/10/10 09:09:37;;;;;;;5.15;2.58;;;21.50;50.20;;;;;;5107221;27;45309;-75
2023/10/10 09:12:13;;;;;;;8.85;3.28;;;21.50;50.70;;;;;;5091605;27;45549;-77
2023/10/10 09:14:41;;;;;;;12.07;2.70;;;21.50;52.10;;;;;;5107830;27;46543;-77
2023/10/10 09:17:12;;;;;;;7.78;2.92;;;21.60;53.10;;;;;;5105433;27;45538;-75
2023/10/10 09:19:46;;;;;;;10.00;3.22;;;21.60;53.70;;;;;;5108311;27;45365;-74
2023/10/10 09:22:25;;;;;;;8.40;2.78;;;21.60;54.00;;;;;;5103999;27;45606;-77
2023/10/10 09:24:55;;;;;;;10.10;3.50;;;21.70;54.50;;;;;;5107841;27;45494;-77
2023/10/10 09:27:27;;;;;;;6.97;3.08;;;21.70;54.30;;;;;;5096598;27;45433;-75
2023/10/10 09:29:56;;;;;;;6.70;2.80;;;21.80;54.70;;;;;;5087607;28;45315;-75
2023/10/10 09:32:42;;;;;;;10.45;3.20;;;21.80;54.70;;;;;;5088096;27;45275;-75
2023/10/10 09:35:09;;;;;;;9.45;3.13;;;21.80;54.80;;;;;;5086797;27;46909;-76
2023/10/10 09:37:41;;;;;;;7.38;2.35;;;21.90;54.90;;;;;;5087051;28;45375;-77
2023/10/10 09:40:15;;;;;;;13.85;3.92;;;22.00;54.90;;;;;;5087646;28;45387;-76
2023/10/10 09:43:03;;;;;;;10.20;2.75;;;22.00;54.60;;;;;;5095116;27;45537;-77
2023/10/10 09:45:52;;;;;;;8.43;2.90;;;22.10;54.70;;;;;;5093055;27;45499;-77
2023/10/10 09:48:28;;;;;;;15.32;3.47;;;22.10;54.40;;;;;;5095492;27;45361;-77
2023/10/10 09:51:15;;;;;;;14.73;4.22;;;22.10;54.40;;;;;;5106795;27;45354;-76
2023/10/10 09:53:46;;;;;;;13.52;3.67;;;22.20;54.30;;;;;;5107788;27;45351;-77
2023/10/10 09:56:15;;;;;;;7.22;3.22;;;22.30;54.10;;;;;;5107546;27;45531;-76
2023/10/10 09:58:44;;;;;;;15.75;3.70;;;22.30;54.00;;;;;;5102615;27;45463;-74
2023/10/10 10:01:18;;;;;;;13.77;3.22;;;22.40;53.80;;;;;;5103334;27;45359;-76
2023/10/10 10:03:55;;;;;;;10.60;3.38;;;22.50;53.80;;;;;;5092327;27;45402;-77
2023/10/10 10:06:51;;;;;;;9.65;2.75;;;22.50;53.70;;;;;;5093183;27;46907;-78
2023/10/10 10:09:45;;;;;;;12.45;3.10;;;22.60;53.30;;;;;;5086786;28;45379;-76
2023/10/10 10:12:19;;;;;;;8.75;3.00;;;22.70;53.20;;;;;;5087168;28;45464;-78
2023/10/10 10:14:54;;;;;;;8.85;3.25;;;22.80;52.60;;;;;;5088011;27;45446;-76
2023/10/10 10:17:30;;;;;;;8.63;2.83;;;22.90;52.40;;;;;;5107031;27;45416;-77
2023/10/10 10:20:19;;;;;;;7.22;2.97;;;22.90;52.60;;;;;;5106922;27;45446;-77
2023/10/10 10:22:45;;;;;;;9.65;2.72;;;23.00;52.40;;;;;;5107373;27;45384;-77
2023/10/10 10:25:22;;;;;;;7.63;2.60;;;23.20;52.30;;;;;;5093548;27;45315;-78
2023/10/10 10:27:50;;;;;;;12.68;2.78;;;23.20;52.00;;;;;;5086337;28;45345;-79
2023/10/10 10:33:21;;;;;;;9.23;3.20;;;23.40;51.50;;;;;;5144460;27;45358;-77
2023/10/10 10:36:14;;;;;;;6.60;2.28;;;23.50;51.70;;;;;;5142793;27;45424;-76
2023/10/10 10:39:17;;;;;;;9.13;2.78;;;23.60;51.70;;;;;;5128701;27;45318;-75
2023/10/10 10:41:42;;;;;;;9.43;2.75;;;23.70;51.60;;;;;;5143775;27;45414;-76
2023/10/10 10:44:12;;;;;;;7.97;2.20;;;23.80;51.60;;;;;;5144267;27;46548;-77
2023/10/10 10:46:47;;;;;;;9.88;2.58;;;24.00;51.40;;;;;;5143879;27;45501;-76
2023/10/10 10:49:22;;;;;;;8.57;2.75;;;24.10;51.30;;;;;;5143620;27;45445;-77
2023/10/10 10:51:51;;;;;;;6.78;2.70;;;24.20;50.80;;;;;;5142089;27;45357;-76
2023/10/10 10:54:35;;;;;;;9.05;2.45;;;24.40;50.20;;;;;;5144778;27;45305;-75
2023/10/10 10:57:02;;;;;;;8.68;3.20;;;24.40;50.10;;;;;;5143360;27;45320;-75
2023/10/10 10:59:36;;;;;;;7.90;2.72;;;24.60;50.00;;;;;;5131361;27;45265;-74
2023/10/10 11:02:13;;;;;;;9.90;2.90;;;24.60;49.60;;;;;;5146810;27;45323;-75
2023/10/10 11:04:43;;;;;;;8.90;2.50;;;24.60;49.60;;;;;;5154184;27;45453;-78
2023/10/10 11:07:16;;;;;;;5.18;2.30;;;24.70;49.70;;;;;;5146218;27;45522;-77
2023/10/10 11:09:52;;;;;;;8.07;2.45;;;24.80;49.00;;;;;;5147749;27;45399;-76
2023/10/10 11:12:21;;;;;;;9.52;2.83;;;25.00;48.60;;;;;;5145805;27;45554;-75
2023/10/10 11:14:49;;;;;;;8.82;3.08;;;25.20;48.10;;;;;;5145640;27;46672;-76
2023/10/10 11:17:19;;;;;;;6.85;2.60;;;25.30;48.00;;;;;;5147960;27;46481;-76
2023/10/10 11:19:48;;;;;;;9.15;2.90;;;25.40;47.80;;;;;;5143375;27;45420;-71
2023/10/10 11:22:38;;;;;;;7.90;2.83;;;25.50;47.60;;;;;;5144261;27;45528;-69
2023/10/10 11:25:05;;;;;;;8.88;2.88;;;25.60;47.80;;;;;;5143500;27;45479;-73
2023/10/10 11:27:43;;;;;;;8.60;3.00;;;25.60;47.30;;;;;;5142840;27;45331;-68
2023/10/10 11:30:11;;;;;;;8.60;3.08;;;25.50;46.70;;;;;;5144025;27;45348;-71
2023/10/10 11:32:45;;;;;;;9.48;3.85;;;25.40;47.10;;;;;;5143701;27;45381;-68
2023/10/10 11:35:22;;;;;;;13.00;3.20;;;25.40;47.40;;;;;;5143386;27;47659;-71
2023/10/10 11:37:59;;;;;;;8.73;3.35;;;25.50;47.00;;;;;;5143836;27;45488;-73
2023/10/10 11:40:32;;;;;;;8.50;3.50;;;25.50;46.60;;;;;;5144131;27;45438;-75
2023/10/10 11:42:59;;;;;;;10.55;3.22;;;25.50;46.70;;;;;;5139184;27;45316;-74
2023/10/10 11:45:26;;;;;;;10.68;2.83;;;25.50;46.80;;;;;;5129924;27;45385;-70
2023/10/10 11:47:54;;;;;;;6.68;2.50;;;25.60;46.70;;;;;;5126804;27;45415;-69
2023/10/10 11:50:29;;;;;;;9.18;2.85;;;25.60;46.50;;;;;;5129490;27;45337;-69
2023/10/10 11:52:56;;;;;;;12.38;2.95;;;25.60;46.30;;;;;;5129981;27;45368;-70
2023/10/10 11:55:23;;;;;;;8.52;2.75;;;25.70;46.40;;;;;;5129265;27;45502;-71
2023/10/10 11:57:51;;;;;;;8.65;3.25;;;25.80;45.70;;;;;;5129496;27;45340;-70
2023/10/10 12:00:22;;;;;;;12.52;2.95;;;25.90;46.00;;;;;;5128882;27;45447;-71
2023/10/10 12:02:50;;;;;;;10.40;2.55;;;26.00;46.00;;;;;;5130029;27;45534;-74
2023/10/10 12:05:38;;;;;;;8.18;2.88;;;26.10;44.90;;;;;;5129326;27;46548;-73
2023/10/10 12:08:07;;;;;;;7.57;2.50;;;26.20;45.50;;;;;;5129829;27;45381;-74
2023/10/10 12:10:47;;;;;;;7.57;2.97;;;26.20;45.10;;;;;;5129639;27;45309;-70
2023/10/10 12:13:33;;;;;;;9.18;2.67;;;26.30;45.00;;;;;;5129990;27;45252;-72
2023/10/10 12:16:00;;;;;;;8.80;2.58;;;26.40;45.40;;;;;;5129426;27;46498;-70
2023/10/10 12:18:30;;;;;;;6.72;2.78;;;26.50;45.20;;;;;;5130133;27;45607;-71
2023/10/10 12:20:57;;;;;;;9.70;2.60;;;26.50;45.10;;;;;;5130324;27;45373;-70
2023/10/10 12:23:25;;;;;;;4.68;2.13;;;26.50;43.70;;;;;;5129356;27;45425;-70
2023/10/10 12:25:54;;;;;;;16.05;3.20;;;26.40;44.50;;;;;;5129101;27;46342;-72
2023/10/10 12:28:21;;;;;;;9.60;2.95;;;26.40;44.40;;;;;;5129165;27;45353;-71
2023/10/10 12:30:48;;;;;;;8.05;2.75;;;26.40;43.50;;;;;;5129075;27;45362;-71
2023/10/10 12:33:16;;;;;;;14.27;2.97;;;26.30;43.60;;;;;;5128501;27;45256;-71
2023/10/10 12:35:46;;;;;;;8.25;3.13;;;26.30;43.90;;;;;;5126842;27;45395;-71
2023/10/10 12:38:15;;;;;;;4.70;2.40;;;26.30;43.50;;;;;;5128378;27;45232;-71
2023/10/10 12:40:44;;;;;;;7.45;2.60;;;26.30;42.60;;;;;;5128446;27;45334;-71
2023/10/10 12:43:12;;;;;;;11.45;2.70;;;26.20;43.00;;;;;;5128654;27;45351;-71
2023/10/10 12:45:39;;;;;;;7.75;2.72;;;26.30;42.50;;;;;;5128911;27;47533;-70
2023/10/10 12:48:13;;;;;;;9.45;2.60;;;26.40;42.20;;;;;;5128961;27;45307;-69
2023/10/10 12:50:40;;;;;;;6.80;2.72;;;26.50;42.90;;;;;;5129255;27;45380;-69
2023/10/10 12:53:09;;;;;;;12.88;3.00;;;26.70;42.00;;;;;;5129131;27;45299;-73
2023/10/10 12:55:46;;;;;;;7.93;2.13;;;26.80;41.60;;;;;;5127802;27;45410;-75
2023/10/10 12:58:16;;;;;;;9.02;2.63;;;26.90;41.30;;;;;;5129571;27;45373;-71
2023/10/10 13:00:50;;;;;;;7.75;2.83;;;27.00;41.50;;;;;;5129496;27;45379;-75
2023/10/10 13:03:17;;;;;;;10.13;2.97;;;27.10;41.10;;;;;;5129536;27;45654;-71
2023/10/10 13:05:47;;;;;;;10.55;2.50;;;27.30;41.30;;;;;;5128930;27;46277;-70
2023/10/10 13:08:14;;;;;;;9.25;2.78;;;27.50;40.00;;;;;;5129135;27;45328;-76
2023/10/10 13:10:42;;;;;;;9.88;2.83;;;27.60;40.80;;;;;;5129182;27;45317;-74
2023/10/10 13:13:09;;;;;;;10.93;3.08;;;27.80;40.10;;;;;;5128858;27;45336;-72
2023/10/10 13:15:49;;;;;;;7.82;2.58;;;28.00;40.60;;;;;;5129486;27;46399;-71
2023/10/10 13:18:24;;;;;;;10.52;2.75;;;28.20;39.50;;;;;;5128877;27;45530;-73
2023/10/10 13:20:51;;;;;;;7.75;2.95;;;28.10;38.10;;;;;;5128612;27;45144;-73
2023/10/10 13:23:18;;;;;;;7.22;3.28;;;27.90;38.50;;;;;;5128591;27;45405;-75
2023/10/10 13:25:48;;;;;;;7.35;2.95;;;27.90;38.80;;;;;;5128779;27;46303;-75
2023/10/10 13:28:19;;;;;;;10.43;3.70;;;27.90;38.80;;;;;;5124057;27;45331;-74
2023/10/10 13:30:47;;;;;;;8.18;3.00;;;28.00;39.20;;;;;;5128707;27;45369;-71
2023/10/10 13:33:14;;;;;;;10.65;3.10;;;28.00;38.60;;;;;;5128771;27;45610;-75
2023/10/10 13:35:41;;;;;;;7.35;2.90;;;28.00;37.80;;;;;;5128111;27;47564;-76
2023/10/10 13:38:08;;;;;;;7.70;2.97;;;28.00;38.20;;;;;;5128167;27;45335;-73
2023/10/10 13:40:40;;;;;;;10.05;3.20;;;28.10;37.50;;;;;;5128391;27;45479;-75
2023/10/10 13:43:08;;;;;;;7.93;2.80;;;28.10;37.80;;;;;;5128752;27;45318;-75
2023/10/10 13:45:37;;;;;;;5.18;2.58;;;28.10;37.30;;;;;;5128413;27;46394;-73
2023/10/10 13:48:09;;;;;;;7.75;2.92;;;28.00;36.90;;;;;;5128498;27;45405;-74
2023/10/10 13:50:42;;;;;;;8.00;2.72;;;27.90;36.70;;;;;;5128734;27;45394;-72
2023/10/10 13:53:12;;;;;;;6.55;2.78;;;27.80;37.00;;;;;;5123859;27;45456;-72
2023/10/10 13:55:39;;;;;;;11.65;2.72;;;27.80;37.50;;;;;;5127826;27;46451;-72
2023/10/10 13:58:08;;;;;;;13.63;3.08;;;27.70;37.80;;;;;;5128242;27;45270;-73
2023/10/10 14:00:38;;;;;;;10.60;3.53;;;27.70;38.00;;;;;;5128010;27;45286;-73
2023/10/10 14:03:06;;;;;;;6.68;2.50;;;27.70;37.90;;;;;;5128673;27;45377;-73
2023/10/10 14:05:34;;;;;;;6.13;2.63;;;27.70;37.80;;;;;;5127400;27;46746;-73
2023/10/10 14:08:03;;;;;;;13.40;2.90;;;27.80;37.60;;;;;;5128010;27;45386;-72
2023/10/10 14:10:36;;;;;;;8.18;2.97;;;28.00;37.20;;;;;;5128539;27;45470;-74
2023/10/10 14:13:18;;;;;;;16.23;3.30;;;28.10;37.40;;;;;;5127807;27;45579;-72
2023/10/10 14:15:54;;;;;;;20.15;3.10;;;28.10;39.20;;;;;;5127636;27;45408;-72
2023/10/10 14:18:23;;;;;;;8.45;3.17;;;28.10;38.10;;;;;;5128276;27;45367;-72
2023/10/10 14:20:50;;;;;;;6.68;2.40;;;28.10;38.10;;;;;;5127686;27;45401;-72
2023/10/10 14:23:19;;;;;;;8.73;2.75;;;28.10;38.10;;;;;;5127463;27;45347;-70
2023/10/10 14:25:47;;;;;;;5.70;2.90;;;28.10;38.80;;;;;;5127780;27;46341;-71
2023/10/10 14:28:16;;;;;;;7.18;3.20;;;28.00;39.30;;;;;;5131305;27;45373;-75
2023/10/10 14:30:43;;;;;;;34.42;24.13;;;27.90;39.00;;;;;;5128991;27;45306;-69
2023/10/10 14:33:10;;;;;;;17.23;11.77;;;27.90;38.90;;;;;;5127631;27;45924;-73
2023/10/10 14:35:39;;;;;;;11.98;5.80;;;28.00;39.40;;;;;;5127630;27;47355;-71
2023/10/10 14:38:06;;;;;;;9.75;5.28;;;28.00;38.00;;;;;;5126924;27;45327;-73
2023/10/10 14:40:34;;;;;;;23.10;4.00;;;28.00;38.00;;;;;;5129009;27;45380;-75
2023/10/10 14:43:05;;;;;;;11.48;2.85;;;27.90;38.50;;;;;;5128438;27;45381;-75
2023/10/10 14:45:33;;;;;;;16.90;3.97;;;27.80;38.20;;;;;;5127755;27;45264;-71
2023/10/10 14:48:04;;;;;;;11.52;4.28;;;27.80;39.90;;;;;;5125914;27;45334;-72
2023/10/10 14:50:38;;;;;;;14.52;4.68;;;27.70;39.60;;;;;;5129079;27;45407;-73
2023/10/10 14:53:08;;;;;;;16.40;5.05;;;27.70;39.00;;;;;;5125601;27;45335;-74
2023/10/10 14:55:44;;;;;;;21.67;4.22;;;27.70;40.30;;;;;;5126665;27;45460;-71